West Fargo, North Dakota
Current Conditions -  °F | °C
As of 8:53 PM on Wednesday 22 Oct 2014 (Local Time) from KFAR Reporting Station
Overcast Overcast  
Wind Chill: 13°   Ceiling: 4800
Heat Index: 13°   Visibility: 10mi
Dew Point: 12°   Wind: 9mph
Humidity: 90%   Direction: 210°SSW
Pressure: 29.89"   Gusts: NA
Location:  46.87°N, 96.88°W
Report Text: KFAR 230153Z 21008KT 10SM BKN048 OVC110 13/12 A2989 RMK AO2 SLP126 T01330117
Loading
Personal Weather Stations






























Interactive Weather Map
Tropical Storm Tracking
New forecast layout! Learn more

10-Day Weather Forecast

Advertisements
Track Severe Weather on mobile